Ardmore, Missouri
Current Conditions -  °F | °C
As of 11:55 PM on Monday 20 Oct 2014 (Local Time) from KIRK Reporting Station
Clear Clear  
Wind Chill: 43°   Ceiling: Unl
Heat Index: 45°   Visibility: 10mi
Dew Point: 44°   Wind: 5mph
Humidity: 97%   Direction: 290°WNW
Pressure: 30.05"   Gusts: NA
Location:  39.6493°N, 92.4492°W
Report Text: KIRK 210455Z AUTO 29004KT 10SM CLR 07/07 A3005 RMK AO2 SLP177 T00720067
Loading
Personal Weather Stations






























Interactive Weather Map
Tropical Storm Tracking
New forecast layout! Learn more

10-Day Weather Forecast

Advertisements
Track Severe Weather on mobile